sensor_id;sensor_type;location;lat;lon;timestamp;temperature;humidity
19561;DHT22;9927;47.792;10.616;2022-10-31T04:01:51;8.90;99.90
19561;DHT22;9927;47.792;10.616;2022-10-31T04:04:20;8.90;99.90
19561;DHT22;9927;47.792;10.616;2022-10-31T04:06:48;8.80;99.90
19561;DHT22;9927;47.792;10.616;2022-10-31T04:09:16;8.70;99.90
19561;DHT22;9927;47.792;10.616;2022-10-31T04:11:50;8.70;99.90
19561;DHT22;9927;47.792;10.616;2022-10-31T04:14:18;8.70;99.90
19561;DHT22;9927;47.792;10.616;2022-10-31T04:16:46;8.60;99.90
19561;DHT22;9927;47.792;10.616;2022-10-31T04:19:14;8.60;99.90
19561;DHT22;9927;47.792;10.616;2022-10-31T04:21:41;8.60;99.90
19561;DHT22;9927;47.792;10.616;2022-10-31T04:24:11;8.50;99.90
19561;DHT22;9927;47.792;10.616;2022-10-31T04:26:39;8.50;99.90
19561;DHT22;9927;47.792;10.616;2022-10-31T04:29:06;8.50;99.90
19561;DHT22;9927;47.792;10.616;2022-10-31T04:31:33;8.60;99.90
19561;DHT22;9927;47.792;10.616;2022-10-31T04:34:00;8.60;99.90
19561;DHT22;9927;47.792;10.616;2022-10-31T04:36:27;8.60;99.90
19561;DHT22;9927;47.792;10.616;2022-10-31T04:38:54;8.60;99.90
19561;DHT22;9927;47.792;10.616;2022-10-31T04:41:22;8.60;99.90
19561;DHT22;9927;47.792;10.616;2022-10-31T04:43:49;8.60;99.90
19561;DHT22;9927;47.792;10.616;2022-10-31T04:46:16;8.60;99.90
19561;DHT22;9927;47.792;10.616;2022-10-31T04:48:43;8.60;99.90
19561;DHT22;9927;47.792;10.616;2022-10-31T04:51:10;8.50;99.90
19561;DHT22;9927;47.792;10.616;2022-10-31T04:53:37;8.40;99.90
19561;DHT22;9927;47.792;10.616;2022-10-31T04:56:05;8.40;99.90
19561;DHT22;9927;47.792;10.616;2022-10-31T04:58:32;8.30;99.90
19561;DHT22;9927;47.792;10.616;2022-10-31T05:01:00;8.10;99.90
19561;DHT22;9927;47.792;10.616;2022-10-31T05:03:27;8.00;99.90
19561;DHT22;9927;47.792;10.616;2022-10-31T05:05:54;8.00;99.90
19561;DHT22;9927;47.792;10.616;2022-10-31T05:08:21;8.10;99.90
19561;DHT22;9927;47.792;10.616;2022-10-31T05:10:48;8.00;99.90
19561;DHT22;9927;47.792;10.616;2022-10-31T05:13:15;8.00;99.90
19561;DHT22;9927;47.792;10.616;2022-10-31T05:15:43;8.00;99.90
19561;DHT22;9927;47.792;10.616;2022-10-31T05:18:10;8.00;99.90
19561;DHT22;9927;47.792;10.616;2022-10-31T05:20:37;8.00;99.90
19561;DHT22;9927;47.792;10.616;2022-10-31T05:23:04;8.00;99.90
19561;DHT22;9927;47.792;10.616;2022-10-31T05:25:31;8.00;99.90
19561;DHT22;9927;47.792;10.616;2022-10-31T05:27:59;8.10;99.90
19561;DHT22;9927;47.792;10.616;2022-10-31T05:30:29;8.00;99.90
19561;DHT22;9927;47.792;10.616;2022-10-31T05:32:57;8.00;99.90
19561;DHT22;9927;47.792;10.616;2022-10-31T05:35:27;8.00;99.90
19561;DHT22;9927;47.792;10.616;2022-10-31T05:37:54;7.90;99.90
19561;DHT22;9927;47.792;10.616;2022-10-31T05:40:22;7.80;99.90
19561;DHT22;9927;47.792;10.616;2022-10-31T05:42:53;7.70;99.90
19561;DHT22;9927;47.792;10.616;2022-10-31T05:45:21;7.70;99.90
19561;DHT22;9927;47.792;10.616;2022-10-31T05:47:57;7.60;99.90
19561;DHT22;9927;47.792;10.616;2022-10-31T05:50:25;7.70;99.90
19561;DHT22;9927;47.792;10.616;2022-10-31T05:53:01;7.70;99.90
19561;DHT22;9927;47.792;10.616;2022-10-31T05:55:29;7.70;99.90
19561;DHT22;9927;47.792;10.616;2022-10-31T05:57:56;7.80;99.90
19561;DHT22;9927;47.792;10.616;2022-10-31T06:00:25;7.80;99.90
19561;DHT22;9927;47.792;10.616;2022-10-31T06:02:59;7.80;99.90
19561;DHT22;9927;47.792;10.616;2022-10-31T06:05:28;7.70;99.90
19561;DHT22;9927;47.792;10.616;2022-10-31T06:07:56;7.70;99.90
19561;DHT22;9927;47.792;10.616;2022-10-31T06:10:24;7.80;99.90
19561;DHT22;9927;47.792;10.616;2022-10-31T06:12:51;7.80;99.90
19561;DHT22;9927;47.792;10.616;2022-10-31T06:15:19;7.80;99.90
19561;DHT22;9927;47.792;10.616;2022-10-31T06:18:02;7.60;99.90
19561;DHT22;9927;47.792;10.616;2022-10-31T06:20:31;7.50;99.90
19561;DHT22;9927;47.792;10.616;2022-10-31T06:22:58;7.50;99.90
19561;DHT22;9927;47.792;10.616;2022-10-31T06:25:26;7.60;99.90
19561;DHT22;9927;47.792;10.616;2022-10-31T06:27:54;7.70;99.90
19561;DHT22;9927;47.792;10.616;2022-10-31T06:30:21;7.80;99.90
19561;DHT22;9927;47.792;10.616;2022-10-31T06:32:49;7.80;99.90
19561;DHT22;9927;47.792;10.616;2022-10-31T06:35:17;7.90;99.90
19561;DHT22;9927;47.792;10.616;2022-10-31T06:37:51;8.00;99.90
19561;DHT22;9927;47.792;10.616;2022-10-31T06:40:18;8.10;99.90
19561;DHT22;9927;47.792;10.616;2022-10-31T06:42:46;8.20;99.90
19561;DHT22;9927;47.792;10.616;2022-10-31T06:45:13;8.30;99.90
19561;DHT22;9927;47.792;10.616;2022-10-31T06:47:40;8.40;99.90
19561;DHT22;9927;47.792;10.616;2022-10-31T06:50:27;8.60;99.90
19561;DHT22;9927;47.792;10.616;2022-10-31T06:52:57;8.60;99.90
19561;DHT22;9927;47.792;10.616;2022-10-31T06:55:26;8.60;99.90
19561;DHT22;9927;47.792;10.616;2022-10-31T06:57:54;8.70;99.90
19561;DHT22;9927;47.792;10.616;2022-10-31T07:00:29;8.70;99.90
19561;DHT22;9927;47.792;10.616;2022-10-31T07:03:09;8.70;99.90
19561;DHT22;9927;47.792;10.616;2022-10-31T07:05:37;8.80;99.90
19561;DHT22;9927;47.792;10.616;2022-10-31T07:08:07;8.80;99.90
19561;DHT22;9927;47.792;10.616;2022-10-31T07:10:36;8.90;99.90
19561;DHT22;9927;47.792;10.616;2022-10-31T07:13:11;9.00;99.90
19561;DHT22;9927;47.792;10.616;2022-10-31T07:15:40;9.00;99.90
19561;DHT22;9927;47.792;10.616;2022-10-31T07:18:09;8.90;99.90
19561;DHT22;9927;47.792;10.616;2022-10-31T07:20:36;9.10;99.90
19561;DHT22;9927;47.792;10.616;2022-10-31T07:23:04;9.10;99.90
19561;DHT22;9927;47.792;10.616;2022-10-31T07:25:32;9.20;99.90
19561;DHT22;9927;47.792;10.616;2022-10-31T07:27:59;9.20;99.90
19561;DHT22;9927;47.792;10.616;2022-10-31T07:32:54;9.50;99.90
19561;DHT22;9927;47.792;10.616;2022-10-31T07:35:27;9.60;99.90
19561;DHT22;9927;47.792;10.616;2022-10-31T07:37:54;9.70;99.90
19561;DHT22;9927;47.792;10.616;2022-10-31T07:40:23;9.80;99.90
19561;DHT22;9927;47.792;10.616;2022-10-31T07:42:52;9.90;99.90
19561;DHT22;9927;47.792;10.616;2022-10-31T07:45:20;10.10;99.90
19561;DHT22;9927;47.792;10.616;2022-10-31T07:47:51;10.20;99.90
19561;DHT22;9927;47.792;10.616;2022-10-31T07:50:21;10.40;99.90
19561;DHT22;9927;47.792;10.616;2022-10-31T07:53:01;10.60;99.90
19561;DHT22;9927;47.792;10.616;2022-10-31T07:55:28;10.80;99.90
19561;DHT22;9927;47.792;10.616;2022-10-31T07:58:04;10.90;99.90
19561;DHT22;9927;47.792;10.616;2022-10-31T08:00:33;11.10;99.90
19561;DHT22;9927;47.792;10.616;2022-10-31T08:05:30;11.30;99.90
19561;DHT22;9927;47.792;10.616;2022-10-31T08:07:57;11.40;99.90
19561;DHT22;9927;47.792;10.616;2022-10-31T08:10:26;11.60;99.90
19561;DHT22;9927;47.792;10.616;2022-10-31T08:15:35;11.90;99.90
19561;DHT22;9927;47.792;10.616;2022-10-31T08:18:06;11.90;99.90
19561;DHT22;9927;47.792;10.616;2022-10-31T08:20:33;12.20;99.90
19561;DHT22;9927;47.792;10.616;2022-10-31T08:23:03;12.20;99.90
19561;DHT22;9927;47.792;10.616;2022-10-31T08:25:33;12.40;99.90
19561;DHT22;9927;47.792;10.616;2022-10-31T08:28:06;12.60;99.90
19561;DHT22;9927;47.792;10.616;2022-10-31T08:30:35;12.90;99.90
19561;DHT22;9927;47.792;10.616;2022-10-31T08:33:17;12.90;99.90
19561;DHT22;9927;47.792;10.616;2022-10-31T08:35:45;13.10;99.90
19561;DHT22;9927;47.792;10.616;2022-10-31T08:38:12;13.20;99.90
19561;DHT22;9927;47.792;10.616;2022-10-31T08:40:40;13.50;99.90
19561;DHT22;9927;47.792;10.616;2022-10-31T08:43:14;13.50;99.90
19561;DHT22;9927;47.792;10.616;2022-10-31T08:45:43;13.60;99.90
19561;DHT22;9927;47.792;10.616;2022-10-31T08:48:15;13.70;99.90
19561;DHT22;9927;47.792;10.616;2022-10-31T08:50:44;14.00;99.90
19561;DHT22;9927;47.792;10.616;2022-10-31T08:53:14;13.90;99.90
19561;DHT22;9927;47.792;10.616;2022-10-31T08:55:42;14.00;99.90
19561;DHT22;9927;47.792;10.616;2022-10-31T08:58:12;14.10;99.90
19561;DHT22;9927;47.792;10.616;2022-10-31T09:00:40;14.20;99.90
19561;DHT22;9927;47.792;10.616;2022-10-31T09:03:13;14.20;99.90
19561;DHT22;9927;47.792;10.616;2022-10-31T09:05:40;14.30;99.90
19561;DHT22;9927;47.792;10.616;2022-10-31T09:08:08;14.40;99.90
19561;DHT22;9927;47.792;10.616;2022-10-31T09:10:43;14.70;99.90
19561;DHT22;9927;47.792;10.616;2022-10-31T09:13:15;14.70;99.90
19561;DHT22;9927;47.792;10.616;2022-10-31T09:15:45;14.80;99.90
19561;DHT22;9927;47.792;10.616;2022-10-31T09:18:14;14.90;99.90
19561;DHT22;9927;47.792;10.616;2022-10-31T09:20:43;15.00;99.90
19561;DHT22;9927;47.792;10.616;2022-10-31T09:23:13;15.00;99.90
19561;DHT22;9927;47.792;10.616;2022-10-31T09:25:41;14.90;99.90
19561;DHT22;9927;47.792;10.616;2022-10-31T09:28:17;14.80;99.90
19561;DHT22;9927;47.792;10.616;2022-10-31T09:30:47;14.90;99.90
19561;DHT22;9927;47.792;10.616;2022-10-31T09:33:15;14.90;99.90
19561;DHT22;9927;47.792;10.616;2022-10-31T09:35:43;15.10;99.90
19561;DHT22;9927;47.792;10.616;2022-10-31T09:38:12;15.20;99.90
19561;DHT22;9927;47.792;10.616;2022-10-31T09:41:07;15.50;99.90
19561;DHT22;9927;47.792;10.616;2022-10-31T09:49:34;15.70;99.90
19561;DHT22;9927;47.792;10.616;2022-10-31T09:52:17;16.00;99.90
19561;DHT22;9927;47.792;10.616;2022-10-31T09:54:57;16.20;99.90
19561;DHT22;9927;47.792;10.616;2022-10-31T09:57:31;16.30;99.90
19561;DHT22;9927;47.792;10.616;2022-10-31T10:00:01;16.60;99.90
19561;DHT22;9927;47.792;10.616;2022-10-31T10:02:35;16.60;99.90
19561;DHT22;9927;47.792;10.616;2022-10-31T10:05:09;16.70;99.90
19561;DHT22;9927;47.792;10.616;2022-10-31T10:08:18;16.70;99.90
19561;DHT22;9927;47.792;10.616;2022-10-31T10:21:51;17.20;99.90
19561;DHT22;9927;47.792;10.616;2022-10-31T10:24:27;17.30;99.90
19561;DHT22;9927;47.792;10.616;2022-10-31T10:27:17;17.40;99.90
19561;DHT22;9927;47.792;10.616;2022-10-31T10:30:11;17.40;99.90
19561;DHT22;9927;47.792;10.616;2022-10-31T10:32:52;17.50;99.90
19561;DHT22;9927;47.792;10.616;2022-10-31T10:35:24;17.80;99.90
19561;DHT22;9927;47.792;10.616;2022-10-31T10:37:57;17.90;99.90
19561;DHT22;9927;47.792;10.616;2022-10-31T10:40:28;18.00;99.90
19561;DHT22;9927;47.792;10.616;2022-10-31T10:43:00;18.10;99.90
19561;DHT22;9927;47.792;10.616;2022-10-31T11:00:26;18.80;99.90
19561;DHT22;9927;47.792;10.616;2022-10-31T11:02:54;18.90;99.90
19561;DHT22;9927;47.792;10.616;2022-10-31T11:05:30;19.00;99.90
19561;DHT22;9927;47.792;10.616;2022-10-31T11:07:59;19.20;99.90
19561;DHT22;9927;47.792;10.616;2022-10-31T11:10:27;19.30;99.90
19561;DHT22;9927;47.792;10.616;2022-10-31T11:13:20;19.30;99.90
19561;DHT22;9927;47.792;10.616;2022-10-31T11:18:45;19.00;99.90
19561;DHT22;9927;47.792;10.616;2022-10-31T11:21:29;19.20;99.90
19561;DHT22;9927;47.792;10.616;2022-10-31T11:26:40;19.60;99.90
19561;DHT22;9927;47.792;10.616;2022-10-31T11:29:20;19.70;99.90
19561;DHT22;9927;47.792;10.616;2022-10-31T11:31:50;19.70;99.90
19561;DHT22;9927;47.792;10.616;2022-10-31T11:34:34;19.70;99.90
19561;DHT22;9927;47.792;10.616;2022-10-31T11:39:41;19.40;99.90
19561;DHT22;9927;47.792;10.616;2022-10-31T11:42:09;19.30;99.90
19561;DHT22;9927;47.792;10.616;2022-10-31T11:44:36;19.30;99.90
19561;DHT22;9927;47.792;10.616;2022-10-31T11:47:14;19.30;99.90
19561;DHT22;9927;47.792;10.616;2022-10-31T11:49:46;19.30;99.90
19561;DHT22;9927;47.792;10.616;2022-10-31T11:52:20;19.30;99.90
19561;DHT22;9927;47.792;10.616;2022-10-31T11:55:00;19.10;99.90
19561;DHT22;9927;47.792;10.616;2022-10-31T11:57:33;19.10;99.90
19561;DHT22;9927;47.792;10.616;2022-10-31T12:00:03;19.00;99.90
19561;DHT22;9927;47.792;10.616;2022-10-31T12:02:31;18.90;99.90
19561;DHT22;9927;47.792;10.616;2022-10-31T12:05:18;18.90;99.90
19561;DHT22;9927;47.792;10.616;2022-10-31T12:07:47;18.80;99.90
19561;DHT22;9927;47.792;10.616;2022-10-31T12:10:16;18.60;99.90
19561;DHT22;9927;47.792;10.616;2022-10-31T12:13:29;18.50;99.90
19561;DHT22;9927;47.792;10.616;2022-10-31T12:19:05;18.60;99.90
19561;DHT22;9927;47.792;10.616;2022-10-31T12:21:48;18.60;99.90
19561;DHT22;9927;47.792;10.616;2022-10-31T12:27:23;19.00;99.90
19561;DHT22;9927;47.792;10.616;2022-10-31T12:33:43;19.40;99.90
19561;DHT22;9927;47.792;10.616;2022-10-31T12:49:26;20.20;99.90
19561;DHT22;9927;47.792;10.616;2022-10-31T12:57:52;20.50;99.90
19561;DHT22;9927;47.792;10.616;2022-10-31T13:00:20;20.60;99.90
19561;DHT22;9927;47.792;10.616;2022-10-31T13:08:06;20.50;99.90
19561;DHT22;9927;47.792;10.616;2022-10-31T13:10:48;20.50;99.90
19561;DHT22;9927;47.792;10.616;2022-10-31T13:13:21;20.50;99.90
19561;DHT22;9927;47.792;10.616;2022-10-31T13:15:57;20.40;99.90
19561;DHT22;9927;47.792;10.616;2022-10-31T13:18:38;20.40;99.90
19561;DHT22;9927;47.792;10.616;2022-10-31T13:21:16;20.40;99.90
19561;DHT22;9927;47.792;10.616;2022-10-31T13:23:46;20.40;99.90
19561;DHT22;9927;47.792;10.616;2022-10-31T13:26:23;20.40;99.90
19561;DHT22;9927;47.792;10.616;2022-10-31T13:31:45;20.20;99.90
19561;DHT22;9927;47.792;10.616;2022-10-31T13:34:27;20.10;99.90
19561;DHT22;9927;47.792;10.616;2022-10-31T13:45:19;20.20;99.90
19561;DHT22;9927;47.792;10.616;2022-10-31T13:48:01;20.30;99.90
19561;DHT22;9927;47.792;10.616;2022-10-31T13:50:59;20.30;99.90
19561;DHT22;9927;47.792;10.616;2022-10-31T13:56:24;20.20;99.90
19561;DHT22;9927;47.792;10.616;2022-10-31T13:59:12;20.10;99.90
19561;DHT22;9927;47.792;10.616;2022-10-31T14:01:56;20.10;99.90
19561;DHT22;9927;47.792;10.616;2022-10-31T14:07:06;20.00;99.90
19561;DHT22;9927;47.792;10.616;2022-10-31T14:09:52;19.90;99.90
19561;DHT22;9927;47.792;10.616;2022-10-31T14:12:44;19.80;99.90
19561;DHT22;9927;47.792;10.616;2022-10-31T14:15:20;19.80;99.90
19561;DHT22;9927;47.792;10.616;2022-10-31T14:18:01;19.70;99.90
19561;DHT22;9927;47.792;10.616;2022-10-31T14:20:44;19.50;99.90
19561;DHT22;9927;47.792;10.616;2022-10-31T14:29:00;19.50;99.90
19561;DHT22;9927;47.792;10.616;2022-10-31T14:34:14;19.50;99.90
19561;DHT22;9927;47.792;10.616;2022-10-31T14:50:24;19.60;99.90
19561;DHT22;9927;47.792;10.616;2022-10-31T14:52:56;19.50;99.90
19561;DHT22;9927;47.792;10.616;2022-10-31T14:55:24;19.50;99.90
19561;DHT22;9927;47.792;10.616;2022-10-31T14:57:57;19.30;99.90
19561;DHT22;9927;47.792;10.616;2022-10-31T15:00:27;19.30;99.90
19561;DHT22;9927;47.792;10.616;2022-10-31T15:05:52;19.20;99.90
19561;DHT22;9927;47.792;10.616;2022-10-31T15:08:46;19.10;99.90
19561;DHT22;9927;47.792;10.616;2022-10-31T15:11:22;19.00;99.90
19561;DHT22;9927;47.792;10.616;2022-10-31T15:13:52;18.90;99.90
19561;DHT22;9927;47.792;10.616;2022-10-31T15:16:30;18.80;99.90
19561;DHT22;9927;47.792;10.616;2022-10-31T15:19:06;18.80;99.90
19561;DHT22;9927;47.792;10.616;2022-10-31T15:21:35;18.70;99.90
19561;DHT22;9927;47.792;10.616;2022-10-31T15:24:10;18.60;99.90
19561;DHT22;9927;47.792;10.616;2022-10-31T15:26:39;18.40;99.90
19561;DHT22;9927;47.792;10.616;2022-10-31T15:29:21;18.40;99.90
19561;DHT22;9927;47.792;10.616;2022-10-31T15:32:09;18.40;99.90
19561;DHT22;9927;47.792;10.616;2022-10-31T15:34:43;18.30;99.90
19561;DHT22;9927;47.792;10.616;2022-10-31T15:37:18;18.30;99.90
19561;DHT22;9927;47.792;10.616;2022-10-31T15:39:47;18.20;99.90
19561;DHT22;9927;47.792;10.616;2022-10-31T15:42:40;18.10;99.90
19561;DHT22;9927;47.792;10.616;2022-10-31T15:47:44;17.90;99.90
19561;DHT22;9927;47.792;10.616;2022-10-31T15:50:35;17.80;99.90
19561;DHT22;9927;47.792;10.616;2022-10-31T15:53:06;17.70;99.90
19561;DHT22;9927;47.792;10.616;2022-10-31T15:55:50;17.50;99.90
19561;DHT22;9927;47.792;10.616;2022-10-31T15:58:18;17.40;99.90
19561;DHT22;9927;47.792;10.616;2022-10-31T16:00:57;17.10;99.90
19561;DHT22;9927;47.792;10.616;2022-10-31T16:03:30;17.10;99.90
19561;DHT22;9927;47.792;10.616;2022-10-31T16:06:00;17.00;99.90
19561;DHT22;9927;47.792;10.616;2022-10-31T16:13:32;16.60;99.90
19561;DHT22;9927;47.792;10.616;2022-10-31T16:16:02;16.50;99.90
19561;DHT22;9927;47.792;10.616;2022-10-31T16:18:51;16.40;99.90
19561;DHT22;9927;47.792;10.616;2022-10-31T16:21:28;16.30;99.90
19561;DHT22;9927;47.792;10.616;2022-10-31T16:24:27;16.10;99.90
19561;DHT22;9927;47.792;10.616;2022-10-31T16:26:54;16.00;99.90
19561;DHT22;9927;47.792;10.616;2022-10-31T16:29:48;15.90;99.90
19561;DHT22;9927;47.792;10.616;2022-10-31T16:32:34;15.70;99.90
19561;DHT22;9927;47.792;10.616;2022-10-31T16:37:40;15.10;99.90
19561;DHT22;9927;47.792;10.616;2022-10-31T16:40:11;15.00;99.90
19561;DHT22;9927;47.792;10.616;2022-10-31T16:42:40;14.90;99.90
19561;DHT22;9927;47.792;10.616;2022-10-31T16:45:17;14.80;99.90
19561;DHT22;9927;47.792;10.616;2022-10-31T16:47:45;14.70;99.90
19561;DHT22;9927;47.792;10.616;2022-10-31T16:50:15;14.70;99.90
19561;DHT22;9927;47.792;10.616;2022-10-31T16:52:43;14.60;99.90
19561;DHT22;9927;47.792;10.616;2022-10-31T16:55:31;14.50;99.90
19561;DHT22;9927;47.792;10.616;2022-10-31T16:58:02;14.40;99.90
19561;DHT22;9927;47.792;10.616;2022-10-31T17:00:29;14.30;99.90
19561;DHT22;9927;47.792;10.616;2022-10-31T17:02:57;14.30;99.90
19561;DHT22;9927;47.792;10.616;2022-10-31T17:05:25;14.30;99.90
19561;DHT22;9927;47.792;10.616;2022-10-31T17:07:59;14.20;99.90
19561;DHT22;9927;47.792;10.616;2022-10-31T17:10:27;14.10;99.90
19561;DHT22;9927;47.792;10.616;2022-10-31T17:12:54;14.10;99.90
19561;DHT22;9927;47.792;10.616;2022-10-31T17:15:25;14.10;99.90
19561;DHT22;9927;47.792;10.616;2022-10-31T17:17:53;14.00;99.90
19561;DHT22;9927;47.792;10.616;2022-10-31T17:20:26;13.90;99.90
19561;DHT22;9927;47.792;10.616;2022-10-31T17:22:54;13.80;99.90
19561;DHT22;9927;47.792;10.616;2022-10-31T17:25:24;13.60;99.90
19561;DHT22;9927;47.792;10.616;2022-10-31T17:27:52;13.40;99.90
19561;DHT22;9927;47.792;10.616;2022-10-31T17:30:21;13.20;99.90
19561;DHT22;9927;47.792;10.616;2022-10-31T17:32:49;13.10;99.90
19561;DHT22;9927;47.792;10.616;2022-10-31T17:35:17;13.10;99.90
19561;DHT22;9927;47.792;10.616;2022-10-31T17:37:45;13.00;99.90
19561;DHT22;9927;47.792;10.616;2022-10-31T17:40:18;13.00;99.90
19561;DHT22;9927;47.792;10.616;2022-10-31T17:42:50;13.00;99.90
19561;DHT22;9927;47.792;10.616;2022-10-31T17:45:18;13.00;99.90
19561;DHT22;9927;47.792;10.616;2022-10-31T17:47:47;13.00;99.90
19561;DHT22;9927;47.792;10.616;2022-10-31T17:50:15;13.00;99.90
19561;DHT22;9927;47.792;10.616;2022-10-31T17:52:43;12.90;99.90
19561;DHT22;9927;47.792;10.616;2022-10-31T17:55:10;12.90;99.90
19561;DHT22;9927;47.792;10.616;2022-10-31T17:57:38;12.90;99.90
19561;DHT22;9927;47.792;10.616;2022-10-31T18:00:09;12.90;99.90
19561;DHT22;9927;47.792;10.616;2022-10-31T18:02:37;12.80;99.90
19561;DHT22;9927;47.792;10.616;2022-10-31T18:05:05;12.80;99.90
19561;DHT22;9927;47.792;10.616;2022-10-31T18:07:32;12.70;99.90
19561;DHT22;9927;47.792;10.616;2022-10-31T18:10:00;12.70;99.90
19561;DHT22;9927;47.792;10.616;2022-10-31T18:12:27;12.60;99.90
19561;DHT22;9927;47.792;10.616;2022-10-31T18:14:54;12.50;99.90
19561;DHT22;9927;47.792;10.616;2022-10-31T18:17:22;12.50;99.90
19561;DHT22;9927;47.792;10.616;2022-10-31T18:19:49;12.50;99.90
19561;DHT22;9927;47.792;10.616;2022-10-31T18:22:16;12.40;99.90
19561;DHT22;9927;47.792;10.616;2022-10-31T18:24:43;12.40;99.90
19561;DHT22;9927;47.792;10.616;2022-10-31T18:27:11;12.10;99.90
19561;DHT22;9927;47.792;10.616;2022-10-31T18:29:38;12.10;99.90
19561;DHT22;9927;47.792;10.616;2022-10-31T18:32:05;12.00;99.90
19561;DHT22;9927;47.792;10.616;2022-10-31T18:34:36;12.00;99.90
19561;DHT22;9927;47.792;10.616;2022-10-31T18:37:03;11.80;99.90
19561;DHT22;9927;47.792;10.616;2022-10-31T18:39:30;11.70;99.90
19561;DHT22;9927;47.792;10.616;2022-10-31T18:41:57;11.60;99.90
19561;DHT22;9927;47.792;10.616;2022-10-31T18:44:24;11.60;99.90
19561;DHT22;9927;47.792;10.616;2022-10-31T18:46:53;11.40;99.90
19561;DHT22;9927;47.792;10.616;2022-10-31T18:49:20;11.40;99.90
19561;DHT22;9927;47.792;10.616;2022-10-31T18:51:51;11.50;99.90
19561;DHT22;9927;47.792;10.616;2022-10-31T18:54:18;11.40;99.90
19561;DHT22;9927;47.792;10.616;2022-10-31T18:56:46;11.50;99.90
19561;DHT22;9927;47.792;10.616;2022-10-31T18:59:13;11.50;99.90
19561;DHT22;9927;47.792;10.616;2022-10-31T19:01:40;11.40;99.90
19561;DHT22;9927;47.792;10.616;2022-10-31T19:04:09;11.50;99.90
19561;DHT22;9927;47.792;10.616;2022-10-31T19:06:37;11.60;99.90
19561;DHT22;9927;47.792;10.616;2022-10-31T19:09:05;11.60;99.90
19561;DHT22;9927;47.792;10.616;2022-10-31T19:11:36;11.70;99.90
19561;DHT22;9927;47.792;10.616;2022-10-31T19:14:04;11.60;99.90
19561;DHT22;9927;47.792;10.616;2022-10-31T19:16:34;11.70;99.90
19561;DHT22;9927;47.792;10.616;2022-10-31T19:19:01;11.70;99.90
19561;DHT22;9927;47.792;10.616;2022-10-31T19:21:29;11.60;99.90
19561;DHT22;9927;47.792;10.616;2022-10-31T19:23:58;11.60;99.90
19561;DHT22;9927;47.792;10.616;2022-10-31T19:26:26;11.60;99.90
19561;DHT22;9927;47.792;10.616;2022-10-31T19:28:55;11.60;99.90
19561;DHT22;9927;47.792;10.616;2022-10-31T19:31:22;11.60;99.90
19561;DHT22;9927;47.792;10.616;2022-10-31T19:33:50;11.60;99.90
19561;DHT22;9927;47.792;10.616;2022-10-31T19:36:18;11.50;99.90
19561;DHT22;9927;47.792;10.616;2022-10-31T19:38:48;11.50;99.90
19561;DHT22;9927;47.792;10.616;2022-10-31T19:41:22;11.40;99.90
19561;DHT22;9927;47.792;10.616;2022-10-31T19:43:50;11.40;99.90
19561;DHT22;9927;47.792;10.616;2022-10-31T19:46:19;11.40;99.90
19561;DHT22;9927;47.792;10.616;2022-10-31T19:49:08;11.40;99.90
19561;DHT22;9927;47.792;10.616;2022-10-31T19:51:35;11.30;99.90
19561;DHT22;9927;47.792;10.616;2022-10-31T19:54:02;11.30;99.90
19561;DHT22;9927;47.792;10.616;2022-10-31T19:56:29;11.20;99.90
19561;DHT22;9927;47.792;10.616;2022-10-31T19:58:56;11.20;99.90
19561;DHT22;9927;47.792;10.616;2022-10-31T20:01:25;11.10;99.90
19561;DHT22;9927;47.792;10.616;2022-10-31T20:03:53;11.10;99.90
19561;DHT22;9927;47.792;10.616;2022-10-31T20:06:28;11.10;99.90
19561;DHT22;9927;47.792;10.616;2022-10-31T20:08:56;11.00;99.90
19561;DHT22;9927;47.792;10.616;2022-10-31T20:11:25;10.80;99.90
19561;DHT22;9927;47.792;10.616;2022-10-31T20:13:54;10.70;99.90
19561;DHT22;9927;47.792;10.616;2022-10-31T20:16:22;10.70;99.90
19561;DHT22;9927;47.792;10.616;2022-10-31T20:18:50;10.70;99.90
19561;DHT22;9927;47.792;10.616;2022-10-31T20:21:21;10.70;99.90
19561;DHT22;9927;47.792;10.616;2022-10-31T20:23:51;10.70;99.90
19561;DHT22;9927;47.792;10.616;2022-10-31T20:26:20;10.70;99.90
19561;DHT22;9927;47.792;10.616;2022-10-31T20:28:47;10.70;99.90
19561;DHT22;9927;47.792;10.616;2022-10-31T20:31:18;10.70;99.90
19561;DHT22;9927;47.792;10.616;2022-10-31T20:33:46;10.70;99.90
19561;DHT22;9927;47.792;10.616;2022-10-31T20:36:14;10.70;99.90
19561;DHT22;9927;47.792;10.616;2022-10-31T20:38:41;10.70;99.90
19561;DHT22;9927;47.792;10.616;2022-10-31T20:41:09;10.70;99.90
19561;DHT22;9927;47.792;10.616;2022-10-31T20:43:37;10.70;99.90
19561;DHT22;9927;47.792;10.616;2022-10-31T20:46:16;10.80;99.90
19561;DHT22;9927;47.792;10.616;2022-10-31T20:48:44;10.80;99.90
19561;DHT22;9927;47.792;10.616;2022-10-31T20:51:14;10.80;99.90
19561;DHT22;9927;47.792;10.616;2022-10-31T20:53:50;10.80;99.90
19561;DHT22;9927;47.792;10.616;2022-10-31T20:56:19;10.90;99.90
19561;DHT22;9927;47.792;10.616;2022-10-31T20:58:48;10.90;99.90
19561;DHT22;9927;47.792;10.616;2022-10-31T21:01:17;10.80;99.90
19561;DHT22;9927;47.792;10.616;2022-10-31T21:03:46;10.80;99.90
19561;DHT22;9927;47.792;10.616;2022-10-31T21:06:14;10.90;99.90
19561;DHT22;9927;47.792;10.616;2022-10-31T21:08:42;10.80;99.90
19561;DHT22;9927;47.792;10.616;2022-10-31T21:11:15;10.70;99.90
19561;DHT22;9927;47.792;10.616;2022-10-31T21:13:43;10.80;99.90
19561;DHT22;9927;47.792;10.616;2022-10-31T21:16:13;10.70;99.90
19561;DHT22;9927;47.792;10.616;2022-10-31T21:18:42;10.80;99.90
19561;DHT22;9927;47.792;10.616;2022-10-31T21:21:25;10.70;99.90
19561;DHT22;9927;47.792;10.616;2022-10-31T21:24:00;10.70;99.90
19561;DHT22;9927;47.792;10.616;2022-10-31T21:26:30;10.80;99.90
19561;DHT22;9927;47.792;10.616;2022-10-31T21:29:00;10.60;99.90
19561;DHT22;9927;47.792;10.616;2022-10-31T21:31:28;10.60;99.90
19561;DHT22;9927;47.792;10.616;2022-10-31T21:33:55;10.50;99.90
19561;DHT22;9927;47.792;10.616;2022-10-31T21:36:22;10.50;99.90
19561;DHT22;9927;47.792;10.616;2022-10-31T21:38:50;10.50;99.90
19561;DHT22;9927;47.792;10.616;2022-10-31T21:41:18;10.40;99.90
19561;DHT22;9927;47.792;10.616;2022-10-31T21:43:47;10.10;99.90
19561;DHT22;9927;47.792;10.616;2022-10-31T21:46:23;10.00;99.90
19561;DHT22;9927;47.792;10.616;2022-10-31T21:48:51;10.00;99.90
19561;DHT22;9927;47.792;10.616;2022-10-31T21:51:22;10.10;99.90
19561;DHT22;9927;47.792;10.616;2022-10-31T21:53:50;10.20;99.90
19561;DHT22;9927;47.792;10.616;2022-10-31T21:56:37;10.10;99.90
19561;DHT22;9927;47.792;10.616;2022-10-31T21:59:04;10.00;99.90
